createdAt,value
2018-06-13T00:00:34.478Z,15.47
2018-06-13T00:01:42.577Z,15.54
2018-06-13T00:02:50.624Z,15.54
2018-06-13T00:03:58.713Z,15.45
2018-06-13T00:05:06.766Z,15.52
2018-06-13T00:06:14.806Z,15.51
2018-06-13T00:07:22.894Z,15.47
2018-06-13T00:08:30.983Z,15.51
2018-06-13T00:09:39.045Z,15.48
2018-06-13T00:10:47.108Z,15.57
2018-06-13T00:11:55.188Z,15.50
2018-06-13T00:13:03.242Z,15.45
2018-06-13T00:14:11.301Z,15.44
2018-06-13T00:15:19.372Z,15.54
2018-06-13T00:16:27.447Z,15.54
2018-06-13T00:17:35.502Z,15.57
2018-06-13T00:18:43.584Z,15.47
2018-06-13T00:19:51.651Z,15.44
2018-06-13T00:20:59.718Z,15.37
2018-06-13T00:22:07.806Z,15.44
2018-06-13T00:23:15.836Z,15.52
2018-06-13T00:24:23.920Z,15.52
2018-06-13T00:25:31.998Z,15.51
2018-06-13T00:26:40.054Z,15.44
2018-06-13T00:27:48.130Z,15.52
2018-06-13T00:28:56.210Z,15.47
2018-06-13T00:30:04.270Z,15.48
2018-06-13T00:31:12.323Z,15.50
2018-06-13T00:32:20.407Z,15.44
2018-06-13T00:33:28.453Z,15.35
2018-06-13T00:34:36.573Z,15.32
2018-06-13T00:35:44.589Z,15.36
2018-06-13T00:36:52.688Z,15.27
2018-06-13T00:38:00.748Z,15.25
2018-06-13T00:39:08.811Z,15.30
2018-06-13T00:40:16.868Z,15.22
2018-06-13T00:41:24.938Z,15.17
2018-06-13T00:42:33.023Z,15.18
2018-06-13T00:43:41.090Z,15.18
2018-06-13T00:44:49.159Z,15.19
2018-06-13T00:45:57.225Z,15.05
2018-06-13T00:47:05.415Z,15.10
2018-06-13T00:48:13.354Z,15.02
2018-06-13T00:49:21.424Z,14.94
2018-06-13T00:50:29.492Z,14.93
2018-06-13T00:51:37.575Z,14.89
2018-06-13T00:52:45.609Z,14.89
2018-06-13T00:53:53.698Z,14.86
2018-06-13T00:55:01.760Z,14.86
2018-06-13T00:56:09.829Z,14.89
2018-06-13T00:57:17.896Z,14.66
2018-06-13T00:58:25.981Z,14.63
2018-06-13T00:59:34.024Z,14.67
2018-06-13T01:00:42.095Z,14.66
2018-06-13T01:01:50.155Z,14.63
2018-06-13T01:02:58.225Z,14.51
2018-06-13T01:04:06.294Z,14.48
2018-06-13T01:05:14.349Z,14.43
2018-06-13T01:06:22.432Z,14.43
2018-06-13T01:07:30.502Z,14.41
2018-06-13T01:08:38.575Z,14.38
2018-06-13T01:09:46.622Z,14.34
2018-06-13T01:10:54.681Z,14.36
2018-06-13T01:12:02.758Z,14.41
2018-06-13T01:13:10.827Z,14.26
2018-06-13T01:14:18.897Z,14.20
2018-06-13T01:15:26.965Z,14.23
2018-06-13T01:16:34.999Z,14.34
2018-06-13T01:17:43.098Z,14.30
2018-06-13T01:18:51.175Z,14.30
2018-06-13T01:19:59.244Z,14.23
2018-06-13T01:21:07.298Z,14.20
2018-06-13T01:22:15.352Z,14.23
2018-06-13T01:23:23.431Z,14.22
2018-06-13T01:24:31.513Z,14.23
2018-06-13T01:25:39.576Z,14.22
2018-06-13T01:26:47.625Z,14.20
2018-06-13T01:27:55.704Z,14.23
2018-06-13T01:29:03.767Z,14.19
2018-06-13T01:30:11.833Z,14.12
2018-06-13T01:31:19.891Z,14.16
2018-06-13T01:32:27.954Z,14.12
2018-06-13T01:33:36.029Z,14.04
2018-06-13T01:34:44.082Z,13.98
2018-06-13T01:35:52.159Z,14.03
2018-06-13T01:37:00.221Z,13.98
2018-06-13T01:38:08.287Z,13.91
2018-06-13T01:39:16.438Z,13.83
2018-06-13T01:40:24.411Z,13.87
2018-06-13T01:41:32.468Z,13.93
2018-06-13T01:42:40.548Z,13.91
2018-06-13T01:43:48.610Z,13.91
2018-06-13T01:44:56.684Z,13.94
2018-06-13T01:46:04.717Z,13.86
2018-06-13T01:47:12.809Z,13.86
2018-06-13T01:48:22.703Z,13.78
2018-06-13T01:49:30.763Z,13.85
2018-06-13T01:50:38.833Z,13.70
2018-06-13T01:51:46.887Z,13.68
2018-06-13T01:52:54.965Z,13.75
2018-06-13T01:54:03.018Z,13.68
2018-06-13T01:55:11.111Z,13.62
2018-06-13T01:56:19.162Z,13.71
2018-06-13T01:57:27.239Z,13.68
2018-06-13T01:58:35.273Z,13.62
2018-06-13T01:59:43.346Z,13.62
2018-06-13T02:00:51.431Z,13.60
2018-06-13T02:01:59.493Z,13.54
2018-06-13T02:03:08.170Z,13.61
2018-06-13T02:04:16.239Z,13.60
2018-06-13T02:05:24.315Z,13.57
2018-06-13T02:06:32.386Z,13.50
2018-06-13T02:07:40.427Z,13.54
2018-06-13T02:08:48.512Z,13.46
2018-06-13T02:09:56.575Z,13.49
2018-06-13T02:11:04.623Z,13.58
2018-06-13T02:12:12.712Z,13.55
2018-06-13T02:13:20.753Z,13.52
2018-06-13T02:14:28.830Z,13.49
2018-06-13T02:15:36.905Z,13.40
2018-06-13T02:16:44.971Z,13.39
2018-06-13T02:17:53.027Z,13.46
2018-06-13T02:19:01.092Z,13.45
2018-06-13T02:20:09.151Z,13.49
2018-06-13T02:21:17.218Z,13.45
2018-06-13T02:22:25.280Z,13.43
2018-06-13T02:23:33.347Z,13.45
2018-06-13T02:24:41.416Z,13.43
2018-06-13T02:25:49.492Z,13.40
2018-06-13T02:26:57.559Z,13.45
2018-06-13T02:28:05.621Z,13.42
2018-06-13T02:29:13.687Z,13.40
2018-06-13T02:30:21.741Z,13.33
2018-06-13T02:31:29.817Z,13.28
2018-06-13T02:32:37.887Z,13.23
2018-06-13T02:33:45.953Z,13.21
2018-06-13T02:34:54.005Z,13.28
2018-06-13T02:36:02.090Z,13.26
2018-06-13T02:37:10.133Z,13.27
2018-06-13T02:38:18.200Z,13.26
2018-06-13T02:39:26.262Z,13.16
2018-06-13T02:40:34.334Z,13.09
2018-06-13T02:41:42.411Z,13.17
2018-06-13T02:42:50.477Z,13.17
2018-06-13T02:43:58.527Z,13.13
2018-06-13T02:45:06.591Z,13.16
2018-06-13T02:46:14.665Z,13.13
2018-06-13T02:47:22.713Z,13.12
2018-06-13T02:48:30.801Z,13.16
2018-06-13T02:49:38.869Z,13.08
2018-06-13T02:50:46.928Z,13.11
2018-06-13T02:51:54.989Z,13.06
2018-06-13T02:53:03.044Z,13.03
2018-06-13T02:54:11.109Z,13.05
2018-06-13T02:55:19.174Z,13.06
2018-06-13T02:56:27.239Z,13.06
2018-06-13T02:57:35.276Z,13.06
2018-06-13T02:58:43.375Z,13.06
2018-06-13T02:59:51.429Z,13.08
2018-06-13T03:00:59.490Z,13.02
2018-06-13T03:02:07.569Z,13.08
2018-06-13T03:03:15.630Z,13.01
2018-06-13T03:04:23.691Z,13.02
2018-06-13T03:05:31.772Z,13.05
2018-06-13T03:06:39.813Z,13.06
2018-06-13T03:07:47.891Z,13.02
2018-06-13T03:08:55.943Z,12.98
2018-06-13T03:10:04.015Z,12.99
2018-06-13T03:11:12.096Z,12.98
2018-06-13T03:12:21.138Z,12.95
2018-06-13T03:13:29.216Z,13.02
2018-06-13T03:14:37.270Z,12.99
2018-06-13T03:15:45.331Z,12.98
2018-06-13T03:16:53.399Z,12.94
2018-06-13T03:18:01.469Z,12.88
2018-06-13T03:19:09.539Z,12.93
2018-06-13T03:20:17.611Z,13.02
2018-06-13T03:21:25.676Z,12.93
2018-06-13T03:22:33.735Z,12.93
2018-06-13T03:23:41.820Z,12.95
2018-06-13T03:24:49.871Z,12.91
2018-06-13T03:25:57.938Z,12.98
2018-06-13T03:27:06.052Z,12.91
2018-06-13T03:28:14.078Z,12.94
2018-06-13T03:29:22.143Z,12.90
2018-06-13T03:30:30.196Z,12.83
2018-06-13T03:31:38.260Z,12.93
2018-06-13T03:32:46.328Z,12.91
2018-06-13T03:33:54.392Z,12.86
2018-06-13T03:35:02.457Z,12.83
2018-06-13T03:36:10.517Z,12.90
2018-06-13T03:37:18.582Z,12.81
2018-06-13T03:38:26.645Z,12.91
2018-06-13T03:39:34.692Z,12.86
2018-06-13T03:40:42.797Z,12.78
2018-06-13T03:41:50.849Z,12.81
2018-06-13T03:42:58.922Z,12.83
2018-06-13T03:44:06.990Z,12.80
2018-06-13T03:45:15.014Z,12.84
2018-06-13T03:46:23.110Z,12.69
2018-06-13T03:47:31.196Z,12.83
2018-06-13T03:48:39.230Z,12.73
2018-06-13T03:49:47.298Z,12.65
2018-06-13T03:50:55.337Z,12.62
2018-06-13T03:52:03.418Z,12.72
2018-06-13T03:53:11.499Z,12.69
2018-06-13T03:54:19.555Z,12.65
2018-06-13T03:55:27.650Z,12.63
2018-06-13T03:56:35.692Z,12.61
2018-06-13T03:57:43.760Z,12.61
2018-06-13T03:58:51.818Z,12.57
2018-06-13T03:59:59.945Z,12.57
2018-06-13T04:01:07.968Z,12.57
2018-06-13T04:02:16.008Z,12.54
2018-06-13T04:03:24.083Z,12.51
2018-06-13T04:04:32.173Z,12.47
2018-06-13T04:05:40.222Z,12.47
2018-06-13T04:06:48.280Z,12.48
2018-06-13T04:07:56.344Z,12.44
2018-06-13T04:09:04.418Z,12.43
2018-06-13T04:10:12.468Z,12.45
2018-06-13T04:11:20.534Z,12.45
2018-06-13T04:12:28.607Z,12.43
2018-06-13T04:13:36.736Z,12.44
2018-06-13T04:14:44.710Z,12.40
2018-06-13T04:15:52.803Z,12.48
2018-06-13T04:17:00.856Z,12.45
2018-06-13T04:18:08.928Z,12.45
2018-06-13T04:19:16.990Z,12.45
2018-06-13T04:20:25.561Z,12.44
2018-06-13T04:21:33.117Z,12.43
2018-06-13T04:22:41.184Z,12.44
2018-06-13T04:23:49.255Z,12.45
2018-06-13T04:24:57.564Z,12.40
2018-06-13T04:26:05.385Z,12.45
2018-06-13T04:27:13.461Z,12.36
2018-06-13T04:28:21.501Z,12.40
2018-06-13T04:29:29.603Z,12.44
2018-06-13T04:30:37.652Z,12.50
2018-06-13T04:31:45.712Z,12.43
2018-06-13T04:32:53.799Z,12.45
2018-06-13T04:34:01.865Z,12.40
2018-06-13T04:35:10.387Z,12.54
2018-06-13T04:36:17.984Z,12.50
2018-06-13T04:37:26.052Z,12.54
2018-06-13T04:38:34.270Z,12.54
2018-06-13T04:39:42.179Z,12.51
2018-06-13T04:40:50.258Z,12.54
2018-06-13T04:41:58.321Z,12.58
2018-06-13T04:43:06.380Z,12.53
2018-06-13T04:44:14.439Z,12.53
2018-06-13T04:45:22.773Z,12.55
2018-06-13T04:46:30.569Z,12.53
2018-06-13T04:47:38.670Z,12.51
2018-06-13T04:48:47.216Z,12.44
2018-06-13T04:49:54.754Z,12.48
2018-06-13T04:51:02.829Z,12.47
2018-06-13T04:52:11.071Z,12.48
2018-06-13T04:53:18.949Z,12.40
2018-06-13T04:54:27.566Z,12.54
2018-06-13T04:55:35.073Z,12.54
2018-06-13T04:56:43.148Z,12.53
2018-06-13T04:57:51.618Z,12.58
2018-06-13T04:58:59.285Z,12.55
2018-06-13T05:00:07.345Z,12.65
2018-06-13T05:01:15.813Z,12.70
2018-06-13T05:02:23.482Z,12.55
2018-06-13T05:03:31.558Z,12.61
2018-06-13T05:04:39.638Z,12.72
2018-06-13T05:05:47.674Z,12.73
2018-06-13T05:06:55.735Z,12.70
2018-06-13T05:08:03.803Z,12.69
2018-06-13T05:09:11.881Z,12.75
2018-06-13T05:10:19.935Z,12.73
2018-06-13T05:11:28.004Z,12.78
2018-06-13T05:12:36.062Z,12.78
2018-06-13T05:13:44.133Z,12.81
2018-06-13T05:14:52.291Z,12.72
2018-06-13T05:16:00.253Z,12.87
2018-06-13T05:17:08.320Z,12.83
2018-06-13T05:18:16.385Z,12.88
2018-06-13T05:19:24.451Z,12.91
2018-06-13T05:20:32.535Z,12.88
2018-06-13T05:21:40.586Z,13.02
2018-06-13T05:22:48.649Z,13.03
2018-06-13T05:23:56.710Z,13.03
2018-06-13T05:25:04.762Z,13.08
2018-06-13T05:26:12.869Z,13.06
2018-06-13T05:27:20.919Z,13.13
2018-06-13T05:28:28.981Z,13.16
2018-06-13T05:29:37.037Z,13.11
2018-06-13T05:30:45.093Z,13.16
2018-06-13T05:31:53.176Z,13.17
2018-06-13T05:33:01.239Z,13.20
2018-06-13T05:34:09.321Z,13.16
2018-06-13T05:35:17.379Z,13.13
2018-06-13T05:36:25.414Z,13.13
2018-06-13T05:37:33.507Z,13.21
2018-06-13T05:38:41.591Z,13.19
2018-06-13T05:39:49.628Z,13.23
2018-06-13T05:40:57.699Z,13.24
2018-06-13T05:42:05.768Z,13.28
2018-06-13T05:43:13.829Z,13.21
2018-06-13T05:44:21.912Z,13.27
2018-06-13T05:45:29.952Z,13.37
2018-06-13T05:46:38.037Z,13.26
2018-06-13T05:47:46.107Z,13.30
2018-06-13T05:48:54.161Z,13.21
2018-06-13T05:50:02.237Z,13.28
2018-06-13T05:51:10.291Z,13.24
2018-06-13T05:52:18.364Z,13.26
2018-06-13T05:53:26.448Z,13.39
2018-06-13T05:54:34.483Z,13.36
2018-06-13T05:55:42.558Z,13.39
2018-06-13T05:56:50.623Z,13.36
2018-06-13T05:57:58.704Z,13.36
2018-06-13T05:59:06.765Z,13.37
2018-06-13T06:00:14.837Z,13.40
2018-06-13T06:01:22.915Z,13.33
2018-06-13T06:02:30.963Z,13.33
2018-06-13T06:03:39.014Z,13.39
2018-06-13T06:04:47.103Z,13.49
2018-06-13T06:05:55.124Z,13.55
2018-06-13T06:07:03.206Z,13.62
2018-06-13T06:08:11.294Z,13.58
2018-06-13T06:09:19.366Z,13.64
2018-06-13T06:10:27.513Z,13.65
2018-06-13T06:11:35.494Z,13.61
2018-06-13T06:12:43.560Z,13.67
2018-06-13T06:13:51.618Z,13.71
2018-06-13T06:14:59.683Z,13.65
2018-06-13T06:16:07.753Z,13.55
2018-06-13T06:17:15.809Z,13.52
2018-06-13T06:18:23.943Z,13.62
2018-06-13T06:19:31.947Z,13.61
2018-06-13T06:20:40.035Z,13.60
2018-06-13T06:21:48.086Z,13.50
2018-06-13T06:22:56.154Z,13.55
2018-06-13T06:24:04.230Z,13.49
2018-06-13T06:25:12.288Z,13.40
2018-06-13T06:26:20.359Z,13.46
2018-06-13T06:27:28.427Z,13.54
2018-06-13T06:28:36.487Z,13.54
2018-06-13T06:29:44.527Z,13.49
2018-06-13T06:30:52.605Z,13.52
2018-06-13T06:32:00.699Z,13.46
2018-06-13T06:33:08.749Z,13.42
2018-06-13T06:34:16.817Z,13.46
2018-06-13T06:35:24.864Z,13.46
2018-06-13T06:36:32.941Z,13.54
2018-06-13T06:37:41.023Z,13.46
2018-06-13T06:38:49.081Z,13.45
2018-06-13T06:39:57.155Z,13.39
2018-06-13T06:41:05.188Z,13.45
2018-06-13T06:42:13.295Z,13.42
2018-06-13T06:43:21.335Z,13.45
2018-06-13T06:44:29.441Z,13.46
2018-06-13T06:45:37.492Z,13.43
2018-06-13T06:46:45.563Z,13.37
2018-06-13T06:47:53.631Z,13.45
2018-06-13T06:49:01.699Z,13.43
2018-06-13T06:50:09.742Z,13.36
2018-06-13T06:51:17.809Z,13.33
2018-06-13T06:52:25.880Z,13.36
2018-06-13T06:53:33.957Z,13.36
2018-06-13T06:54:42.022Z,13.24
2018-06-13T06:55:50.072Z,13.23
2018-06-13T06:56:58.140Z,13.31
2018-06-13T06:58:06.208Z,13.28
2018-06-13T06:59:14.281Z,13.36
2018-06-13T07:00:22.346Z,13.36
2018-06-13T07:01:30.423Z,13.31
2018-06-13T07:02:38.495Z,13.33
2018-06-13T07:03:46.554Z,13.37
2018-06-13T07:04:58.315Z,13.42
2018-06-13T07:06:04.284Z,13.39
2018-06-13T07:07:12.340Z,13.31
2018-06-13T07:08:20.425Z,13.40
2018-06-13T07:09:28.487Z,13.36
2018-06-13T07:10:36.548Z,13.40
2018-06-13T07:11:44.618Z,13.39
2018-06-13T07:12:52.663Z,13.39
2018-06-13T07:14:00.735Z,13.40
2018-06-13T07:15:08.813Z,13.40
2018-06-13T07:16:16.876Z,13.42
2018-06-13T07:17:24.931Z,13.47
2018-06-13T07:18:33.011Z,13.52
2018-06-13T07:19:41.083Z,13.50
2018-06-13T07:20:49.131Z,13.46
2018-06-13T07:21:57.202Z,13.50
2018-06-13T07:23:05.254Z,13.47
2018-06-13T07:24:13.342Z,13.49
2018-06-13T07:25:21.411Z,13.43
2018-06-13T07:26:29.478Z,13.49
2018-06-13T07:27:37.532Z,13.61
2018-06-13T07:28:45.604Z,13.58
2018-06-13T07:29:53.665Z,13.65
2018-06-13T07:31:02.962Z,13.65
2018-06-13T07:32:09.808Z,13.68
2018-06-13T07:33:17.864Z,13.71
2018-06-13T07:34:25.932Z,13.70
2018-06-13T07:35:34.017Z,13.71
2018-06-13T07:36:42.074Z,13.68
2018-06-13T07:37:50.118Z,13.68
2018-06-13T07:38:58.199Z,13.57
2018-06-13T07:40:06.271Z,13.76
2018-06-13T07:41:14.332Z,13.70
2018-06-13T07:42:22.408Z,13.76
2018-06-13T07:43:30.454Z,13.76
2018-06-13T07:44:38.521Z,13.79
2018-06-13T07:45:46.599Z,13.91
2018-06-13T07:46:54.648Z,13.93
2018-06-13T07:48:02.751Z,14.07
2018-06-13T07:49:10.817Z,14.07
2018-06-13T07:50:20.968Z,14.08
2018-06-13T07:51:26.932Z,14.01
2018-06-13T07:52:34.983Z,14.04
2018-06-13T07:53:43.066Z,13.98
2018-06-13T07:54:51.121Z,13.98
2018-06-13T07:55:59.199Z,14.11
2018-06-13T07:57:07.268Z,14.12
2018-06-13T07:58:15.323Z,14.07
2018-06-13T07:59:23.410Z,14.05
2018-06-13T08:00:31.471Z,14.04
2018-06-13T08:01:39.542Z,14.12
2018-06-13T08:02:47.600Z,13.93
2018-06-13T08:03:55.676Z,13.93
2018-06-13T08:05:03.750Z,13.91
2018-06-13T08:06:11.801Z,13.89
2018-06-13T08:07:19.869Z,13.97
2018-06-13T08:08:27.943Z,14.12
2018-06-13T08:09:36.004Z,14.15
2018-06-13T08:10:44.069Z,14.20
2018-06-13T08:11:52.132Z,14.30
2018-06-13T08:13:00.221Z,14.49
2018-06-13T08:14:08.281Z,14.51
2018-06-13T08:15:16.334Z,14.53
2018-06-13T08:16:24.413Z,14.67
2018-06-13T08:17:32.483Z,14.59
2018-06-13T08:18:40.539Z,14.66
2018-06-13T08:19:48.614Z,14.53
2018-06-13T08:20:56.681Z,14.45
2018-06-13T08:22:04.750Z,14.58
2018-06-13T08:23:12.828Z,14.49
2018-06-13T08:24:20.904Z,14.52
2018-06-13T08:25:28.953Z,14.55
2018-06-13T08:26:37.024Z,14.56
2018-06-13T08:27:45.090Z,14.51
2018-06-13T08:28:53.162Z,14.51
2018-06-13T08:30:01.235Z,14.41
2018-06-13T08:31:09.287Z,14.37
2018-06-13T08:32:17.353Z,14.28
2018-06-13T08:33:25.433Z,14.18
2018-06-13T08:34:33.512Z,14.20
2018-06-13T08:35:41.574Z,14.13
2018-06-13T08:36:49.643Z,14.11
2018-06-13T08:37:57.718Z,14.04
2018-06-13T08:39:05.778Z,14.03
2018-06-13T08:40:13.866Z,13.97
2018-06-13T08:41:21.911Z,13.89
2018-06-13T08:42:29.971Z,14.00
2018-06-13T08:43:38.042Z,13.91
2018-06-13T08:44:46.114Z,13.86
2018-06-13T08:45:54.221Z,13.94
2018-06-13T08:47:02.239Z,13.87
2018-06-13T08:48:10.317Z,13.97
2018-06-13T08:49:18.400Z,14.04
2018-06-13T08:50:26.466Z,14.03
2018-06-13T08:51:34.528Z,14.16
2018-06-13T08:52:42.598Z,14.15
2018-06-13T08:53:50.650Z,14.22
2018-06-13T08:54:58.734Z,14.48
2018-06-13T08:56:06.801Z,14.62
2018-06-13T08:57:14.824Z,14.82
2018-06-13T08:58:22.926Z,14.93
2018-06-13T08:59:31.003Z,15.05
2018-06-13T09:00:39.064Z,15.11
2018-06-13T09:01:47.142Z,15.15
2018-06-13T09:02:55.185Z,15.17
2018-06-13T09:04:03.283Z,15.23
2018-06-13T09:05:11.336Z,15.22
2018-06-13T09:06:19.410Z,15.27
2018-06-13T09:07:27.473Z,15.26
2018-06-13T09:08:35.536Z,15.29
2018-06-13T09:09:43.638Z,15.23
2018-06-13T09:10:51.681Z,15.23
2018-06-13T09:11:59.746Z,15.17
2018-06-13T09:13:07.834Z,15.15
2018-06-13T09:14:15.863Z,15.15
2018-06-13T09:15:23.948Z,14.97
2018-06-13T09:16:32.010Z,14.86
2018-06-13T09:17:40.087Z,14.79
2018-06-13T09:18:48.139Z,14.79
2018-06-13T09:19:56.221Z,14.74
2018-06-13T09:21:04.289Z,14.66
2018-06-13T09:22:12.373Z,14.51
2018-06-13T09:23:20.435Z,14.41
2018-06-13T09:24:28.498Z,14.40
2018-06-13T09:25:36.552Z,14.45
2018-06-13T09:26:44.626Z,14.37
2018-06-13T09:27:52.724Z,14.49
2018-06-13T09:29:00.778Z,14.53
2018-06-13T09:30:08.855Z,14.58
2018-06-13T09:31:16.944Z,14.61
2018-06-13T09:32:24.962Z,14.52
2018-06-13T09:33:33.048Z,14.58
2018-06-13T09:34:41.122Z,14.48
2018-06-13T09:35:49.186Z,14.45
2018-06-13T09:36:57.250Z,14.49
2018-06-13T09:38:05.296Z,14.56
2018-06-13T09:39:13.391Z,14.52
2018-06-13T09:40:21.449Z,14.63
2018-06-13T09:41:29.521Z,14.77
2018-06-13T09:42:37.580Z,14.97
2018-06-13T09:43:45.642Z,15.15
2018-06-13T09:44:53.720Z,15.33
2018-06-13T09:46:03.635Z,15.43
2018-06-13T09:47:15.138Z,15.55
2018-06-13T09:48:17.909Z,15.57
2018-06-13T09:49:25.985Z,15.51
2018-06-13T09:50:34.054Z,15.36
2018-06-13T09:51:42.125Z,15.36
2018-06-13T09:52:50.186Z,15.19
2018-06-13T09:53:58.245Z,15.15
2018-06-13T09:55:06.338Z,14.96
2018-06-13T09:56:14.387Z,14.89
2018-06-13T09:57:22.452Z,14.61
2018-06-13T09:58:30.530Z,14.37
2018-06-13T09:59:38.595Z,14.28
2018-06-13T10:00:46.657Z,14.26
2018-06-13T10:01:54.715Z,14.23
2018-06-13T10:03:02.810Z,14.18
2018-06-13T10:04:10.869Z,14.23
2018-06-13T10:05:18.933Z,14.23
2018-06-13T10:06:27.026Z,14.22
2018-06-13T10:07:35.039Z,14.23
2018-06-13T10:08:43.183Z,14.28
2018-06-13T10:09:51.195Z,14.31
2018-06-13T10:10:59.264Z,14.41
2018-06-13T10:12:07.329Z,14.45
2018-06-13T10:13:15.376Z,14.56
2018-06-13T10:14:23.482Z,14.67
2018-06-13T10:15:31.526Z,14.81
2018-06-13T10:16:39.636Z,14.94
2018-06-13T10:17:47.680Z,15.11
2018-06-13T10:18:55.745Z,15.18
2018-06-13T10:20:03.812Z,15.35
2018-06-13T10:21:11.868Z,15.54
2018-06-13T10:22:19.943Z,15.80
2018-06-13T10:23:28.014Z,15.94
2018-06-13T10:24:36.082Z,16.21
2018-06-13T10:25:44.139Z,16.32
2018-06-13T10:26:52.225Z,16.43
2018-06-13T10:28:00.279Z,16.69
2018-06-13T10:29:08.343Z,16.84
2018-06-13T10:30:16.419Z,17.16
2018-06-13T10:31:24.476Z,17.28
2018-06-13T10:32:32.562Z,17.38
2018-06-13T10:33:43.240Z,17.44
2018-06-13T10:34:51.340Z,17.34
2018-06-13T10:35:59.371Z,17.23
2018-06-13T10:37:07.435Z,17.13
2018-06-13T10:38:15.508Z,17.02
2018-06-13T10:39:23.592Z,16.94
2018-06-13T10:40:31.657Z,16.87
2018-06-13T10:41:39.780Z,16.79
2018-06-13T10:42:47.791Z,16.80
2018-06-13T10:43:55.848Z,16.83
2018-06-13T10:45:05.092Z,16.73
2018-06-13T10:46:12.013Z,16.58
2018-06-13T10:47:20.085Z,16.37
2018-06-13T10:48:28.196Z,16.46
2018-06-13T10:49:36.211Z,16.34
2018-06-13T10:50:44.292Z,16.36
2018-06-13T10:51:52.356Z,16.31
2018-06-13T10:53:00.407Z,16.26
2018-06-13T10:54:13.538Z,16.16
2018-06-13T10:55:21.607Z,16.05
2018-06-13T10:56:28.250Z,16.03
2018-06-13T10:57:36.332Z,15.88
2018-06-13T10:58:44.389Z,15.83
2018-06-13T10:59:52.477Z,15.84
2018-06-13T11:01:00.533Z,15.78
2018-06-13T11:02:08.584Z,15.75
2018-06-13T11:03:16.658Z,15.63
2018-06-13T11:04:24.725Z,15.51
2018-06-13T11:05:32.810Z,15.52
2018-06-13T11:06:40.868Z,15.54
2018-06-13T11:07:48.947Z,15.55
2018-06-13T11:08:57.012Z,15.60
2018-06-13T11:10:05.041Z,15.69
2018-06-13T11:11:13.153Z,15.72
2018-06-13T11:12:21.223Z,15.78
2018-06-13T11:13:29.282Z,15.83
2018-06-13T11:14:37.370Z,15.94
2018-06-13T11:15:45.411Z,16.05
2018-06-13T11:16:53.474Z,15.98
2018-06-13T11:18:01.548Z,15.94
2018-06-13T11:19:09.606Z,15.96
2018-06-13T11:20:17.734Z,16.00
2018-06-13T11:21:25.753Z,15.91
2018-06-13T11:22:33.814Z,15.96
2018-06-13T11:23:41.890Z,15.84
2018-06-13T11:24:49.950Z,15.76
2018-06-13T11:25:58.013Z,15.72
2018-06-13T11:27:06.110Z,15.73
2018-06-13T11:28:14.160Z,15.57
2018-06-13T11:29:22.240Z,15.54
2018-06-13T11:30:30.278Z,15.37
2018-06-13T11:31:38.401Z,15.41
2018-06-13T11:32:46.515Z,15.29
2018-06-13T11:33:54.528Z,15.26
2018-06-13T11:35:02.567Z,15.12
2018-06-13T11:36:10.626Z,15.10
2018-06-13T11:37:18.702Z,15.04
2018-06-13T11:38:26.774Z,15.00
2018-06-13T11:39:34.824Z,14.92
2018-06-13T11:40:42.910Z,14.89
2018-06-13T11:41:50.978Z,14.81
2018-06-13T11:42:59.032Z,14.92
2018-06-13T11:44:07.095Z,14.86
2018-06-13T11:45:15.148Z,14.82
2018-06-13T11:46:23.249Z,14.90
2018-06-13T11:47:31.318Z,14.85
2018-06-13T11:48:39.369Z,14.86
2018-06-13T11:49:47.444Z,14.87
2018-06-13T11:50:55.512Z,14.79
2018-06-13T11:52:03.588Z,14.99
2018-06-13T11:53:11.642Z,15.04
2018-06-13T11:54:19.711Z,15.12
2018-06-13T11:55:28.018Z,15.08
2018-06-13T11:56:35.853Z,15.17
2018-06-13T11:57:43.918Z,15.10
2018-06-13T11:58:51.983Z,15.05
2018-06-13T12:00:00.068Z,15.08
2018-06-13T12:01:08.114Z,15.11
2018-06-13T12:02:16.193Z,15.12
2018-06-13T12:03:24.254Z,15.11
2018-06-13T12:04:32.310Z,15.11
2018-06-13T12:05:40.383Z,15.07
2018-06-13T12:06:48.477Z,15.15
2018-06-13T12:07:56.537Z,15.15
2018-06-13T12:09:04.556Z,15.15
2018-06-13T12:10:12.643Z,15.18
2018-06-13T12:11:20.731Z,15.22
2018-06-13T12:12:28.785Z,15.15
2018-06-13T12:13:36.857Z,15.10
2018-06-13T12:14:44.912Z,15.14
2018-06-13T12:15:52.988Z,15.22
2018-06-13T12:17:01.065Z,15.00
2018-06-13T12:18:09.122Z,14.96
2018-06-13T12:19:17.286Z,14.94
2018-06-13T12:20:25.238Z,14.99
2018-06-13T12:21:33.323Z,14.92
2018-06-13T12:22:41.387Z,14.94
2018-06-13T12:23:49.457Z,14.94
2018-06-13T12:24:57.531Z,14.92
2018-06-13T12:26:05.579Z,14.90
2018-06-13T12:27:13.678Z,14.81
2018-06-13T12:28:21.723Z,14.77
2018-06-13T12:29:29.806Z,14.81
2018-06-13T12:30:37.864Z,14.77
2018-06-13T12:31:45.928Z,14.70
2018-06-13T12:32:53.984Z,14.70
2018-06-13T12:34:03.806Z,14.67
2018-06-13T12:35:10.138Z,14.68
2018-06-13T12:36:18.190Z,14.79
2018-06-13T12:37:26.262Z,14.81
2018-06-13T12:38:34.334Z,14.87
2018-06-13T12:39:42.407Z,14.89
2018-06-13T12:40:50.490Z,14.86
2018-06-13T12:41:58.530Z,14.86
2018-06-13T12:43:06.600Z,14.87
2018-06-13T12:44:14.679Z,14.90
2018-06-13T12:45:22.731Z,14.81
2018-06-13T12:46:30.803Z,14.85
2018-06-13T12:47:38.879Z,14.85
2018-06-13T12:48:46.928Z,14.96
2018-06-13T12:49:54.986Z,14.94
2018-06-13T12:51:03.083Z,14.85
2018-06-13T12:52:11.155Z,14.96
2018-06-13T12:53:19.230Z,14.90
2018-06-13T12:54:27.272Z,14.89
2018-06-13T12:55:35.345Z,14.89
2018-06-13T12:56:43.424Z,14.85
2018-06-13T12:57:51.481Z,14.87
2018-06-13T12:58:59.619Z,14.82
2018-06-13T13:00:07.625Z,14.71
2018-06-13T13:01:15.661Z,14.82
2018-06-13T13:02:23.745Z,14.73
2018-06-13T13:03:31.826Z,14.81
2018-06-13T13:04:39.940Z,14.85
2018-06-13T13:05:47.936Z,14.82
2018-06-13T13:06:56.016Z,14.99
2018-06-13T13:08:04.085Z,14.96
2018-06-13T13:09:12.151Z,14.92
2018-06-13T13:10:20.242Z,14.94
2018-06-13T13:11:28.281Z,15.02
2018-06-13T13:12:36.344Z,14.97
2018-06-13T13:13:44.434Z,14.99
2018-06-13T13:14:52.497Z,15.07
2018-06-13T13:16:00.560Z,14.97
2018-06-13T13:17:08.623Z,15.02
2018-06-13T13:18:16.733Z,14.99
2018-06-13T13:19:24.758Z,15.08
2018-06-13T13:20:32.816Z,15.04
2018-06-13T13:21:40.883Z,15.10
2018-06-13T13:22:48.952Z,15.12
2018-06-13T13:23:57.025Z,15.14
2018-06-13T13:25:05.088Z,15.23
2018-06-13T13:26:13.163Z,15.07
2018-06-13T13:27:21.213Z,15.10
2018-06-13T13:28:29.301Z,15.17
2018-06-13T13:29:37.361Z,15.22
2018-06-13T13:30:45.406Z,15.32
2018-06-13T13:31:53.510Z,15.32
2018-06-13T13:33:01.589Z,15.41
2018-06-13T13:34:09.653Z,15.37
2018-06-13T13:35:17.708Z,15.35
2018-06-13T13:36:25.762Z,15.30
2018-06-13T13:37:33.831Z,15.33
2018-06-13T13:38:41.908Z,15.32
2018-06-13T13:39:49.967Z,15.37
2018-06-13T13:40:58.023Z,15.41
2018-06-13T13:42:06.095Z,15.51
2018-06-13T13:43:14.169Z,15.57
2018-06-13T13:44:22.242Z,15.47
2018-06-13T13:45:30.374Z,15.60
2018-06-13T13:46:38.373Z,15.52
2018-06-13T13:47:46.439Z,15.72
2018-06-13T13:48:54.490Z,15.72
2018-06-13T13:50:02.592Z,15.70
2018-06-13T13:51:10.623Z,15.73
2018-06-13T13:52:18.723Z,15.75
2018-06-13T13:53:26.832Z,15.72
2018-06-13T13:54:34.826Z,15.80
2018-06-13T13:55:42.914Z,15.83
2018-06-13T13:56:51.013Z,15.90
2018-06-13T13:57:59.042Z,16.08
2018-06-13T13:59:07.117Z,16.09
2018-06-13T14:00:15.181Z,16.12
2018-06-13T14:01:23.255Z,16.08
2018-06-13T14:02:31.310Z,16.06
2018-06-13T14:03:39.399Z,16.13
2018-06-13T14:04:47.465Z,16.22
2018-06-13T14:05:55.509Z,16.28
2018-06-13T14:07:03.678Z,16.22
2018-06-13T14:08:11.662Z,16.26
2018-06-13T14:09:19.721Z,16.18
2018-06-13T14:10:27.803Z,16.13
2018-06-13T14:11:35.864Z,15.98
2018-06-13T14:12:43.921Z,15.91
2018-06-13T14:13:52.007Z,15.84
2018-06-13T14:15:00.103Z,15.54
2018-06-13T14:16:08.134Z,15.51
2018-06-13T14:17:16.210Z,15.37
2018-06-13T14:18:24.278Z,15.19
2018-06-13T14:19:32.341Z,15.27
2018-06-13T14:20:40.411Z,15.15
2018-06-13T14:21:48.481Z,15.08
2018-06-13T14:22:56.543Z,15.15
2018-06-13T14:24:04.608Z,15.12
2018-06-13T14:25:12.713Z,15.02
2018-06-13T14:26:20.746Z,15.02
2018-06-13T14:27:28.810Z,15.08
2018-06-13T14:28:36.891Z,15.15
2018-06-13T14:29:44.978Z,15.02
2018-06-13T14:30:53.013Z,14.99
2018-06-13T14:32:01.085Z,15.11
2018-06-13T14:33:09.154Z,15.08
2018-06-13T14:34:17.216Z,15.00
2018-06-13T14:35:25.315Z,14.99
2018-06-13T14:36:33.359Z,14.94